createdAt,value
2023-04-16T00:01:25.749Z,3.85
2023-04-16T00:03:52.596Z,3.55
2023-04-16T00:06:19.114Z,3.33
2023-04-16T00:08:45.725Z,3.72
2023-04-16T00:11:12.364Z,3.65
2023-04-16T00:13:38.796Z,3.70
2023-04-16T00:16:05.599Z,3.90
2023-04-16T00:18:32.094Z,4.43
2023-04-16T00:20:59.542Z,3.92
2023-04-16T00:23:25.961Z,3.78
2023-04-16T00:25:53.799Z,3.75
2023-04-16T00:28:20.450Z,4.00
2023-04-16T00:30:47.051Z,5.15
2023-04-16T00:33:13.572Z,4.70
2023-04-16T00:35:40.084Z,5.25
2023-04-16T00:38:06.614Z,5.10
2023-04-16T00:40:33.011Z,4.50
2023-04-16T00:42:59.449Z,5.95
2023-04-16T00:45:26.142Z,4.60
2023-04-16T00:47:52.566Z,6.22
2023-04-16T00:50:19.149Z,5.68
2023-04-16T00:52:47.540Z,5.68
2023-04-16T00:55:15.326Z,5.00
2023-04-16T00:57:41.793Z,5.75
2023-04-16T01:00:08.776Z,5.45
2023-04-16T01:02:35.816Z,6.32
2023-04-16T01:05:04.190Z,5.93
2023-04-16T01:07:30.759Z,6.63
2023-04-16T01:09:57.248Z,6.28
2023-04-16T01:12:23.694Z,6.03
2023-04-16T01:14:50.589Z,5.10
2023-04-16T01:17:17.002Z,5.82
2023-04-16T01:19:43.367Z,5.20
2023-04-16T01:22:09.788Z,6.00
2023-04-16T01:24:36.558Z,5.90
2023-04-16T01:27:03.123Z,5.78
2023-04-16T01:29:29.875Z,6.43
2023-04-16T01:31:56.287Z,5.38
2023-04-16T01:34:23.100Z,6.15
2023-04-16T01:36:49.578Z,6.15
2023-04-16T01:39:16.491Z,6.57
2023-04-16T01:41:43.710Z,6.03
2023-04-16T01:44:10.260Z,6.22
2023-04-16T01:46:37.846Z,6.70
2023-04-16T01:49:04.807Z,6.03
2023-04-16T01:51:32.162Z,6.97
2023-04-16T01:53:58.967Z,6.80
2023-04-16T01:56:25.797Z,6.68
2023-04-16T01:58:53.324Z,6.15
2023-04-16T02:01:20.214Z,6.90
2023-04-16T02:03:47.635Z,6.93
2023-04-16T02:06:14.722Z,5.88
2023-04-16T02:08:41.593Z,6.30
2023-04-16T02:11:08.247Z,6.15
2023-04-16T02:13:34.906Z,5.72
2023-04-16T02:16:02.437Z,5.85
2023-04-16T02:18:28.962Z,5.32
2023-04-16T02:20:58.555Z,5.43
2023-04-16T02:23:25.012Z,5.90
2023-04-16T02:25:51.558Z,6.07
2023-04-16T02:28:18.112Z,5.97
2023-04-16T02:30:44.746Z,5.38
2023-04-16T02:33:12.459Z,5.47
2023-04-16T02:35:40.091Z,4.60
2023-04-16T02:38:07.665Z,4.90
2023-04-16T02:40:34.183Z,4.15
2023-04-16T02:43:00.977Z,4.68
2023-04-16T02:45:27.657Z,4.13
2023-04-16T02:47:54.552Z,4.10
2023-04-16T02:50:21.060Z,3.88
2023-04-16T02:52:48.595Z,3.58
2023-04-16T02:55:15.388Z,3.53
2023-04-16T02:57:42.505Z,3.20
2023-04-16T03:00:09.829Z,3.17
2023-04-16T03:02:36.446Z,3.03
2023-04-16T03:05:03.502Z,3.15
2023-04-16T03:07:30.155Z,2.80
2023-04-16T03:09:56.918Z,3.17
2023-04-16T03:12:23.458Z,2.70
2023-04-16T03:14:52.333Z,2.83
2023-04-16T03:17:18.725Z,2.80
2023-04-16T03:19:45.338Z,2.78
2023-04-16T03:22:11.992Z,2.80
2023-04-16T03:24:38.362Z,2.50
2023-04-16T03:27:04.830Z,3.00
2023-04-16T03:29:31.207Z,3.10
2023-04-16T03:31:57.695Z,2.83
2023-04-16T03:34:24.368Z,2.50
2023-04-16T03:36:50.939Z,3.00
2023-04-16T03:39:17.404Z,2.78
2023-04-16T03:41:43.899Z,2.30
2023-04-16T03:44:10.555Z,2.58
2023-04-16T03:46:37.155Z,2.97
2023-04-16T03:49:03.831Z,3.05
2023-04-16T03:51:30.298Z,2.63
2023-04-16T03:53:56.721Z,3.38
2023-04-16T03:56:23.290Z,3.40
2023-04-16T03:58:49.953Z,3.35
2023-04-16T04:01:16.415Z,4.50
2023-04-16T04:03:43.092Z,3.85
2023-04-16T04:06:10.053Z,4.82
2023-04-16T04:08:36.594Z,5.22
2023-04-16T04:11:03.128Z,5.00
2023-04-16T04:13:29.521Z,5.28
2023-04-16T04:15:56.015Z,4.70
2023-04-16T04:18:22.418Z,4.90
2023-04-16T04:20:48.851Z,5.20
2023-04-16T04:23:15.586Z,4.95
2023-04-16T04:25:42.016Z,5.18
2023-04-16T04:28:08.402Z,5.85
2023-04-16T04:30:35.840Z,5.38
2023-04-16T04:33:02.558Z,5.28
2023-04-16T04:35:29.132Z,4.95
2023-04-16T04:37:55.621Z,5.35
2023-04-16T04:40:22.043Z,4.90
2023-04-16T04:42:48.498Z,5.32
2023-04-16T04:45:15.207Z,6.15
2023-04-16T04:47:41.806Z,5.55
2023-04-16T04:50:08.604Z,5.00
2023-04-16T04:52:35.281Z,4.95
2023-04-16T04:55:01.652Z,5.47
2023-04-16T04:57:28.115Z,5.72
2023-04-16T04:59:54.731Z,4.65
2023-04-16T05:02:21.209Z,4.88
2023-04-16T05:04:47.671Z,5.55
2023-04-16T05:07:14.428Z,4.45
2023-04-16T05:09:41.060Z,4.57
2023-04-16T05:12:07.503Z,4.40
2023-04-16T05:14:34.080Z,5.15
2023-04-16T05:17:01.011Z,4.82
2023-04-16T05:19:27.399Z,4.47
2023-04-16T05:21:54.348Z,4.80
2023-04-16T05:24:20.885Z,6.25
2023-04-16T05:26:47.263Z,5.30
2023-04-16T05:29:13.959Z,4.70
2023-04-16T05:31:40.947Z,5.60
2023-04-16T05:34:07.480Z,5.75
2023-04-16T05:36:33.855Z,5.15
2023-04-16T05:39:00.234Z,5.88
2023-04-16T05:41:26.870Z,5.15
2023-04-16T05:43:53.345Z,5.15
2023-04-16T05:46:19.925Z,4.80
2023-04-16T05:48:46.506Z,4.75
2023-04-16T05:51:12.869Z,5.10
2023-04-16T05:53:39.245Z,5.00
2023-04-16T05:56:06.088Z,4.97
2023-04-16T05:58:32.480Z,4.95
2023-04-16T06:00:58.864Z,5.30
2023-04-16T06:03:25.488Z,7.30
2023-04-16T06:05:52.014Z,7.57
2023-04-16T06:08:18.582Z,8.00
2023-04-16T06:10:48.461Z,9.65
2023-04-16T06:13:14.865Z,8.73
2023-04-16T06:15:41.264Z,9.15
2023-04-16T06:18:07.811Z,10.13
2023-04-16T06:20:34.333Z,9.85
2023-04-16T06:23:00.749Z,10.45
2023-04-16T06:25:27.265Z,10.35
2023-04-16T06:27:53.655Z,10.02
2023-04-16T06:30:20.105Z,11.18
2023-04-16T06:32:46.637Z,12.10
2023-04-16T06:35:13.617Z,11.75
2023-04-16T06:37:40.059Z,12.18
2023-04-16T06:40:07.026Z,11.00
2023-04-16T06:42:33.467Z,11.05
2023-04-16T06:44:59.905Z,10.18
2023-04-16T06:47:27.080Z,10.55
2023-04-16T06:49:53.584Z,11.13
2023-04-16T06:52:19.997Z,10.75
2023-04-16T06:54:46.389Z,11.35
2023-04-16T06:57:12.844Z,12.27
2023-04-16T06:59:39.519Z,12.20
2023-04-16T07:02:06.627Z,12.60
2023-04-16T07:04:33.164Z,12.13
2023-04-16T07:06:59.593Z,13.07
2023-04-16T07:09:27.267Z,11.60
2023-04-16T07:11:54.513Z,11.68
2023-04-16T07:14:21.011Z,13.07
2023-04-16T07:16:47.538Z,13.70
2023-04-16T07:19:13.951Z,13.40
2023-04-16T07:21:41.983Z,13.80
2023-04-16T07:24:08.476Z,15.10
2023-04-16T07:26:35.195Z,14.27
2023-04-16T07:29:01.553Z,14.90
2023-04-16T07:31:28.067Z,16.15
2023-04-16T07:33:54.664Z,15.13
2023-04-16T07:36:21.256Z,15.52
2023-04-16T07:38:47.714Z,15.45
2023-04-16T07:41:15.283Z,15.77
2023-04-16T07:43:41.638Z,15.07
2023-04-16T07:46:08.205Z,15.55
2023-04-16T07:48:34.570Z,14.55
2023-04-16T07:51:01.255Z,14.57
2023-04-16T07:53:27.722Z,15.68
2023-04-16T07:55:54.093Z,13.57
2023-04-16T07:58:20.521Z,14.80
2023-04-16T08:00:47.489Z,13.90
2023-04-16T08:03:16.138Z,14.73
2023-04-16T08:05:42.986Z,14.88
2023-04-16T08:08:09.537Z,14.18
2023-04-16T08:10:36.056Z,13.63
2023-04-16T08:13:02.646Z,14.30
2023-04-16T08:15:29.408Z,13.93
2023-04-16T08:17:56.134Z,13.93
2023-04-16T08:20:22.623Z,13.40
2023-04-16T08:22:49.316Z,14.10
2023-04-16T08:25:15.782Z,13.70
2023-04-16T08:27:42.279Z,13.57
2023-04-16T08:30:08.820Z,13.73
2023-04-16T08:32:35.376Z,13.60
2023-04-16T08:35:02.094Z,14.35
2023-04-16T08:37:28.806Z,14.13
2023-04-16T08:39:55.420Z,13.65
2023-04-16T08:42:30.034Z,14.27
2023-04-16T08:47:38.677Z,12.95
2023-04-16T08:50:06.092Z,13.20
2023-04-16T08:52:32.672Z,13.18
2023-04-16T08:55:12.680Z,13.93
2023-04-16T08:57:47.168Z,13.95
2023-04-16T09:02:41.214Z,13.02
2023-04-16T09:05:09.515Z,12.98
2023-04-16T09:07:36.630Z,12.82
2023-04-16T09:10:03.469Z,11.43
2023-04-16T09:12:31.230Z,11.10
2023-04-16T09:17:27.166Z,12.13
2023-04-16T09:19:54.837Z,11.48
2023-04-16T09:22:21.294Z,11.23
2023-04-16T09:24:47.809Z,11.35
2023-04-16T09:27:14.231Z,11.25
2023-04-16T09:29:42.043Z,10.55
2023-04-16T09:32:10.259Z,11.52
2023-04-16T09:34:55.909Z,9.82
2023-04-16T09:37:22.359Z,9.30
2023-04-16T09:40:03.629Z,9.15
2023-04-16T09:42:35.802Z,9.25
2023-04-16T09:45:05.531Z,7.93
2023-04-16T09:47:41.946Z,8.75
2023-04-16T09:50:12.252Z,9.30
2023-04-16T09:52:39.224Z,8.68
2023-04-16T09:55:06.466Z,8.52
2023-04-16T09:57:32.953Z,8.68
2023-04-16T10:00:08.825Z,8.40
2023-04-16T10:02:39.019Z,8.52
2023-04-16T10:05:06.380Z,9.65
2023-04-16T10:07:36.912Z,9.45
2023-04-16T10:10:04.444Z,9.63
2023-04-16T10:12:32.658Z,9.55
2023-04-16T10:14:59.191Z,9.15
2023-04-16T10:17:26.364Z,9.75
2023-04-16T10:19:54.615Z,10.75
2023-04-16T10:22:21.200Z,10.57
2023-04-16T10:24:48.800Z,11.52
2023-04-16T10:27:17.234Z,11.13
2023-04-16T10:29:44.527Z,11.90
2023-04-16T10:32:11.784Z,10.60
2023-04-16T10:34:39.126Z,11.23
2023-04-16T10:37:05.526Z,11.30
2023-04-16T10:39:37.524Z,11.13
2023-04-16T10:42:08.271Z,11.10
2023-04-16T10:44:34.748Z,10.57
2023-04-16T10:47:01.147Z,10.50
2023-04-16T10:49:27.620Z,11.18
2023-04-16T10:52:03.615Z,10.52
2023-04-16T10:54:31.662Z,9.90
2023-04-16T10:57:02.253Z,11.20
2023-04-16T10:59:33.099Z,10.82
2023-04-16T11:02:02.038Z,10.15
2023-04-16T11:04:39.375Z,10.98
2023-04-16T11:07:13.720Z,11.82
2023-04-16T11:10:00.215Z,8.95
2023-04-16T11:12:34.368Z,11.10
2023-04-16T11:15:12.045Z,10.80
2023-04-16T11:17:46.380Z,11.13
2023-04-16T11:20:23.649Z,11.45
2023-04-16T11:22:59.832Z,11.32
2023-04-16T11:25:31.346Z,10.52
2023-04-16T11:28:01.319Z,11.35
2023-04-16T11:30:34.063Z,11.40
2023-04-16T11:33:11.783Z,10.90
2023-04-16T11:35:39.556Z,10.05
2023-04-16T11:40:36.013Z,9.23
2023-04-16T11:43:04.165Z,8.82
2023-04-16T11:45:30.814Z,9.40
2023-04-16T11:47:57.798Z,7.80
2023-04-16T11:50:26.186Z,9.60
2023-04-16T11:52:54.311Z,7.90
2023-04-16T11:55:21.882Z,7.82
2023-04-16T11:57:49.126Z,8.40
2023-04-16T12:00:18.984Z,7.72
2023-04-16T12:02:53.001Z,7.53
2023-04-16T12:05:31.350Z,6.95
2023-04-16T12:07:59.172Z,7.60
2023-04-16T12:10:27.055Z,7.43
2023-04-16T12:12:53.531Z,7.68
2023-04-16T12:15:19.948Z,8.35
2023-04-16T12:17:46.508Z,7.38
2023-04-16T12:20:15.431Z,6.57
2023-04-16T12:22:46.836Z,6.15
2023-04-16T12:25:16.423Z,6.68
2023-04-16T12:27:52.982Z,7.65
2023-04-16T12:30:22.598Z,8.00
2023-04-16T12:32:51.682Z,6.55
2023-04-16T12:35:32.231Z,6.30
2023-04-16T12:37:59.132Z,6.15
2023-04-16T12:40:26.266Z,6.60
2023-04-16T12:42:52.889Z,6.15
2023-04-16T12:45:19.330Z,5.97
2023-04-16T12:47:46.624Z,5.95
2023-04-16T12:50:13.061Z,5.22
2023-04-16T12:52:39.574Z,6.20
2023-04-16T12:55:06.594Z,6.10
2023-04-16T12:57:33.179Z,5.78
2023-04-16T12:59:59.678Z,6.70
2023-04-16T13:02:26.398Z,6.55
2023-04-16T13:04:53.678Z,6.32
2023-04-16T13:07:20.707Z,5.72
2023-04-16T13:09:47.169Z,5.50
2023-04-16T13:12:13.709Z,5.60
2023-04-16T13:14:40.250Z,4.97
2023-04-16T13:17:06.637Z,5.97
2023-04-16T13:19:33.124Z,5.07
2023-04-16T13:21:59.578Z,5.65
2023-04-16T13:24:26.135Z,5.13
2023-04-16T13:26:52.612Z,5.43
2023-04-16T13:29:22.885Z,4.95
2023-04-16T13:31:49.422Z,5.28
2023-04-16T13:34:15.893Z,4.63
2023-04-16T13:36:43.465Z,4.82
2023-04-16T13:39:12.958Z,4.22
2023-04-16T13:41:39.706Z,3.30
2023-04-16T13:44:06.765Z,3.15
2023-04-16T13:46:33.535Z,3.50
2023-04-16T13:49:00.143Z,3.17
2023-04-16T13:51:27.663Z,2.92
2023-04-16T13:53:56.002Z,2.92
2023-04-16T13:56:22.530Z,2.72
2023-04-16T13:58:49.211Z,2.78
2023-04-16T14:01:15.677Z,3.08
2023-04-16T14:03:42.258Z,3.40
2023-04-16T14:06:08.736Z,2.72
2023-04-16T14:08:35.210Z,3.78
2023-04-16T14:11:02.138Z,4.13
2023-04-16T14:13:28.600Z,3.70
2023-04-16T14:15:55.659Z,3.00
2023-04-16T14:18:22.125Z,3.13
2023-04-16T14:20:48.646Z,3.20
2023-04-16T14:23:15.108Z,3.60
2023-04-16T14:25:41.682Z,2.92
2023-04-16T14:28:09.340Z,2.42
2023-04-16T14:30:35.730Z,2.83
2023-04-16T14:33:06.376Z,2.40
2023-04-16T14:35:34.001Z,2.83
2023-04-16T14:38:01.281Z,2.75
2023-04-16T14:40:27.766Z,2.80
2023-04-16T14:42:54.241Z,2.75
2023-04-16T14:45:20.952Z,2.60
2023-04-16T14:47:48.109Z,4.05
2023-04-16T14:50:15.568Z,3.70
2023-04-16T14:52:42.151Z,3.85
2023-04-16T14:55:08.610Z,3.00
2023-04-16T14:57:35.040Z,3.78
2023-04-16T15:00:01.607Z,5.45
2023-04-16T15:02:28.308Z,4.80
2023-04-16T15:04:54.873Z,4.20
2023-04-16T15:07:22.065Z,3.75
2023-04-16T15:09:48.534Z,4.85
2023-04-16T15:12:15.515Z,4.72
2023-04-16T15:14:43.323Z,3.97
2023-04-16T15:17:09.957Z,4.15
2023-04-16T15:19:36.692Z,4.00
2023-04-16T15:22:03.357Z,4.20
2023-04-16T15:24:29.784Z,4.55
2023-04-16T15:26:56.364Z,4.80
2023-04-16T15:29:22.721Z,5.03
2023-04-16T15:31:49.238Z,5.78
2023-04-16T15:34:15.765Z,5.43
2023-04-16T15:36:42.230Z,5.38
2023-04-16T15:39:09.530Z,6.57
2023-04-16T15:41:44.349Z,5.85
2023-04-16T15:44:23.691Z,6.10
2023-04-16T15:46:50.318Z,6.75
2023-04-16T15:49:16.906Z,6.47
2023-04-16T15:51:43.410Z,7.30
2023-04-16T15:54:09.923Z,7.10
2023-04-16T15:56:36.387Z,7.03
2023-04-16T15:59:03.815Z,7.85
2023-04-16T16:01:31.239Z,7.55
2023-04-16T16:03:58.008Z,7.90
2023-04-16T16:06:24.684Z,7.75
2023-04-16T16:08:51.196Z,8.75
2023-04-16T16:11:17.834Z,8.55
2023-04-16T16:13:44.256Z,9.40
2023-04-16T16:16:10.935Z,7.75
2023-04-16T16:18:37.503Z,6.70
2023-04-16T16:21:03.853Z,6.65
2023-04-16T16:23:30.361Z,6.40
2023-04-16T16:25:56.908Z,7.03
2023-04-16T16:28:24.961Z,6.45
2023-04-16T16:30:53.726Z,6.93
2023-04-16T16:33:20.689Z,5.60
2023-04-16T16:35:47.508Z,4.68
2023-04-16T16:38:13.955Z,5.20
2023-04-16T16:40:40.372Z,4.65
2023-04-16T16:43:06.941Z,4.90
2023-04-16T16:45:33.556Z,5.50
2023-04-16T16:48:00.237Z,4.90
2023-04-16T16:50:26.997Z,4.57
2023-04-16T16:52:53.503Z,4.68
2023-04-16T16:55:20.962Z,4.45
2023-04-16T16:57:47.411Z,4.22
2023-04-16T17:00:15.841Z,4.45
2023-04-16T17:02:42.914Z,4.55
2023-04-16T17:05:09.781Z,4.03
2023-04-16T17:07:36.428Z,4.43
2023-04-16T17:10:06.001Z,5.20
2023-04-16T17:12:32.520Z,4.57
2023-04-16T17:14:59.064Z,5.25
2023-04-16T17:17:27.390Z,5.53
2023-04-16T17:19:54.035Z,6.63
2023-04-16T17:22:20.588Z,8.10
2023-04-16T17:24:47.197Z,9.10
2023-04-16T17:27:13.641Z,10.32
2023-04-16T17:29:40.141Z,9.68
2023-04-16T17:32:06.651Z,10.23
2023-04-16T17:34:33.146Z,10.35
2023-04-16T17:36:59.652Z,10.63
2023-04-16T17:39:26.383Z,11.10
2023-04-16T17:41:54.712Z,11.35
2023-04-16T17:44:23.133Z,11.43
2023-04-16T17:46:49.681Z,12.07
2023-04-16T17:49:16.124Z,11.60
2023-04-16T17:51:44.616Z,11.13
2023-04-16T17:54:11.310Z,12.32
2023-04-16T17:56:37.981Z,13.07
2023-04-16T17:59:04.917Z,12.27
2023-04-16T18:01:31.584Z,12.10
2023-04-16T18:03:58.282Z,13.88
2023-04-16T18:06:24.992Z,12.65
2023-04-16T18:08:51.342Z,13.93
2023-04-16T18:11:17.762Z,13.02
2023-04-16T18:13:44.409Z,14.32
2023-04-16T18:16:17.439Z,14.15
2023-04-16T18:18:44.539Z,13.10
2023-04-16T18:21:11.374Z,13.68
2023-04-16T18:23:37.883Z,14.30
2023-04-16T18:26:04.363Z,15.27
2023-04-16T18:28:30.921Z,14.48
2023-04-16T18:30:59.171Z,13.55
2023-04-16T18:33:50.095Z,14.88
2023-04-16T18:36:12.271Z,14.35
2023-04-16T18:38:49.421Z,14.65
2023-04-16T18:41:23.996Z,14.90
2023-04-16T18:43:50.539Z,14.43
2023-04-16T18:46:17.392Z,16.00
2023-04-16T18:48:47.113Z,13.93
2023-04-16T18:51:15.553Z,17.58
2023-04-16T18:53:44.204Z,16.45
2023-04-16T18:56:11.560Z,15.30
2023-04-16T18:58:38.097Z,18.02
2023-04-16T19:01:05.254Z,17.25
2023-04-16T19:03:32.273Z,18.67
2023-04-16T19:05:58.825Z,18.50
2023-04-16T19:08:25.302Z,18.42
2023-04-16T19:10:51.826Z,16.88
2023-04-16T19:13:18.311Z,19.00
2023-04-16T19:15:44.857Z,16.75
2023-04-16T19:18:11.268Z,15.60
2023-04-16T19:20:38.097Z,19.02
2023-04-16T19:23:05.574Z,17.95
2023-04-16T19:25:32.549Z,17.95
2023-04-16T19:27:59.306Z,18.92
2023-04-16T19:30:26.421Z,19.33
2023-04-16T19:32:55.149Z,17.95
2023-04-16T19:35:22.356Z,17.85
2023-04-16T19:37:48.841Z,19.10
2023-04-16T19:40:15.349Z,18.98
2023-04-16T19:42:41.903Z,19.08
2023-04-16T19:45:08.594Z,17.88
2023-04-16T19:47:35.086Z,16.60
2023-04-16T19:50:01.462Z,17.48
2023-04-16T19:52:27.894Z,16.95
2023-04-16T19:54:54.529Z,19.05
2023-04-16T19:57:20.975Z,17.55
2023-04-16T19:59:47.430Z,20.10
2023-04-16T20:02:13.903Z,17.75
2023-04-16T20:04:40.320Z,18.55
2023-04-16T20:07:06.777Z,16.90
2023-04-16T20:09:33.228Z,17.85
2023-04-16T20:12:00.733Z,16.75
2023-04-16T20:14:27.200Z,16.58
2023-04-16T20:16:53.733Z,18.27
2023-04-16T20:19:20.291Z,17.95
2023-04-16T20:21:46.740Z,18.00
2023-04-16T20:24:15.294Z,17.23
2023-04-16T20:26:41.767Z,14.48
2023-04-16T20:29:08.335Z,17.10
2023-04-16T20:31:34.829Z,16.20
2023-04-16T20:34:01.291Z,16.63
2023-04-16T20:36:27.884Z,17.10
2023-04-16T20:38:54.341Z,16.02
2023-04-16T20:41:21.318Z,16.13
2023-04-16T20:43:50.139Z,15.15
2023-04-16T20:46:17.698Z,16.70
2023-04-16T20:48:44.487Z,16.45
2023-04-16T20:51:10.983Z,15.57
2023-04-16T20:53:38.096Z,15.55
2023-04-16T20:56:05.225Z,15.55
2023-04-16T20:58:31.649Z,16.40
2023-04-16T21:00:58.165Z,15.20
2023-04-16T21:03:24.858Z,15.65
2023-04-16T21:05:53.238Z,16.05
2023-04-16T21:08:23.406Z,15.18
2023-04-16T21:10:50.487Z,14.68
2023-04-16T21:13:17.193Z,15.43
2023-04-16T21:15:45.491Z,14.48
2023-04-16T21:18:12.686Z,17.17
2023-04-16T21:20:39.751Z,15.10
2023-04-16T21:23:06.384Z,15.73
2023-04-16T21:25:33.580Z,14.52
2023-04-16T21:28:00.030Z,15.68
2023-04-16T21:30:26.474Z,15.05
2023-04-16T21:32:53.022Z,17.17
2023-04-16T21:35:19.567Z,16.90
2023-04-16T21:37:46.212Z,15.43
2023-04-16T21:40:12.670Z,17.20
2023-04-16T21:42:42.389Z,16.45
2023-04-16T21:45:10.416Z,16.08
2023-04-16T21:47:37.845Z,16.52
2023-04-16T21:50:04.663Z,15.82
2023-04-16T21:52:32.700Z,16.73
2023-04-16T21:55:00.436Z,16.52
2023-04-16T21:57:27.076Z,17.08
2023-04-16T21:59:53.508Z,17.85
2023-04-16T22:02:20.163Z,18.05
2023-04-16T22:04:47.353Z,16.08
2023-04-16T22:07:13.805Z,15.27
2023-04-16T22:09:40.865Z,16.08
2023-04-16T22:12:10.066Z,17.98
2023-04-16T22:14:38.352Z,16.55
2023-04-16T22:17:05.726Z,17.77
2023-04-16T22:19:32.204Z,16.05
2023-04-16T22:21:58.641Z,17.23
2023-04-16T22:24:25.057Z,17.08
2023-04-16T22:26:51.492Z,15.55
2023-04-16T22:29:17.982Z,15.95
2023-04-16T22:31:44.420Z,17.50
2023-04-16T22:34:11.092Z,16.13
2023-04-16T22:36:37.526Z,16.27
2023-04-16T22:39:08.349Z,15.57
2023-04-16T22:41:38.090Z,16.30
2023-04-16T22:44:04.698Z,16.42
2023-04-16T22:46:31.285Z,17.80
2023-04-16T22:48:58.082Z,16.30
2023-04-16T22:51:24.678Z,15.02
2023-04-16T22:53:51.871Z,14.75
2023-04-16T22:56:21.845Z,14.40
2023-04-16T22:58:51.223Z,16.02
2023-04-16T23:01:17.803Z,14.35
2023-04-16T23:03:44.436Z,14.68
2023-04-16T23:06:10.958Z,14.73
2023-04-16T23:08:37.341Z,16.33
2023-04-16T23:11:03.829Z,15.63
2023-04-16T23:13:30.314Z,14.98
2023-04-16T23:15:57.071Z,16.02
2023-04-16T23:18:23.782Z,16.02
2023-04-16T23:20:53.622Z,15.65
2023-04-16T23:23:20.058Z,15.05
2023-04-16T23:25:46.683Z,14.88
2023-04-16T23:28:13.102Z,15.32
2023-04-16T23:30:39.818Z,16.35
2023-04-16T23:33:06.871Z,15.43
2023-04-16T23:35:33.522Z,15.85
2023-04-16T23:37:59.943Z,16.83
2023-04-16T23:40:26.489Z,16.83
2023-04-16T23:42:52.913Z,15.98
2023-04-16T23:45:19.394Z,17.25
2023-04-16T23:47:46.033Z,15.98
2023-04-16T23:50:12.631Z,16.80
2023-04-16T23:52:39.044Z,16.95
2023-04-16T23:55:05.712Z,16.63
2023-04-16T23:57:32.208Z,16.08
2023-04-16T23:59:58.715Z,15.88
